| time (UTC) | temp F | wind direction | speed knots | gust knots | rain 1hr in | rain 24hr in | rain mn in | humidity % | barometer mb |
| 20260906051841 | 73 | 66 | 1.7 | 8.7 | 0.69 | 0.69 | 0.69 | 90 | 1010.5 |
| 20260906050329 | 74 | 141 | 4.3 | 12.2 | 0.69 | 0.69 | 0.69 | 90 | 1011.1 |
| 20260906044833 | 75 | 57 | 1.7 | 10.4 | 0.69 | 0.69 | 0.69 | 85 | 1010.5 |
| 20260906043338 | 79 | 71 | 6.1 | 11.3 | 0.18 | 0.18 | 0.21 | 80 | 1011.1 |
| 20260906041840 | 80 | 47 | 1.7 | 12.2 | 0.00 | 0.00 | 0.00 | 76 | 1010.5 |
| 20260906040328 | 80 | 78 | 4.3 | 11.3 | 0.00 | 0.00 | 0.00 | 74 | 1009.7 |
| 20260906034833 | 79 | 82 | 2.6 | 10.4 | 0.00 | 0.00 | 0.00 | 74 | 1009.7 |
| 20260906033338 | 78 | 28 | 2.6 | 7.8 | 0.00 | 0.00 | 0.00 | 85 | 1010.1 |
| 20260906031842 | 78 | 336 | 0.9 | 1.7 | 0.00 | 0.00 | 0.00 | 83 | 1009.6 |
| 20260906030345 | 78 | 242 | 0.0 | 2.6 | 0.00 | 0.00 | 0.00 | 82 | 1009.2 |
| 20260906024831 | 79 | 229 | 0.9 | 2.6 | 0.00 | 0.00 | 0.00 | 80 | 1009.1 |
| 20260906023329 | 80 | 211 | 1.7 | 2.6 | 0.00 | 0.00 | 0.00 | 80 | 1008.9 |
| 20260906021847 | 80 | 211 | 0.9 | 3.5 | 0.00 | 0.00 | 0.00 | 76 | 1008.6 |
| 20260906020331 | 81 | 53 | 0.0 | 1.7 | 0.00 | 0.00 | 0.00 | 71 | 1008.3 |
| 20260906014839 | 82 | 56 | 0.9 | 3.5 | 0.00 | 0.00 | 0.00 | 71 | 1008.1 |
| 20260906013325 | 82 | 201 | 0.0 | 1.7 | 0.00 | 0.00 | 0.00 | 71 | 1008.2 |
| 20260906011848 | 82 | 182 | 0.9 | 1.7 | 0.00 | 0.00 | 0.00 | 70 | 1008.3 |
| 20260906010334 | 83 | 243 | 0.9 | 6.1 | 0.00 | 0.00 | 0.00 | 70 | 1008.6 |
| 20260906004859 | 82 | 111 | 1.7 | 13.0 | 0.00 | 0.00 | 0.00 | 70 | 1009.0 |
| 20260906003324 | 83 | 208 | 7.8 | 18.2 | 0.00 | 0.00 | 0.00 | 64 | 1008.7 |
| 20260906001829 | 87 | 246 | 6.1 | 14.8 | 0.00 | 0.00 | 0.00 | 61 | 1008.6 |
| 20260906000326 | 92 | 280 | 1.7 | 5.2 | 0.00 | 0.00 | 0.00 | 53 | 1008.5 |
| 20260905234843 | 94 | 109 | 2.6 | 5.2 | 0.00 | 0.00 | 0.00 | 50 | 1008.1 |
| 20260905233345 | 96 | 60 | 1.7 | 4.3 | 0.00 | 0.00 | 0.00 | 48 | 1008.1 |
| 20260905231832 | 100 | 159 | 1.7 | 7.8 | 0.00 | 0.00 | 0.00 | 46 | 1007.8 |
| 20260905230337 | 103 | 221 | 0.9 | 2.6 | 0.00 | 0.00 | 0.00 | 40 | 1007.7 |
| 20260905224843 | 102 | 263 | 0.9 | 3.5 | 0.00 | 0.00 | 0.00 | 40 | 1007.7 |
| 20260905223332 | 102 | 198 | 2.6 | 5.2 | 0.00 | 0.00 | 0.00 | 40 | 1007.7 |
| 20260905221831 | 103 | 242 | 1.7 | 5.2 | 0.00 | 0.00 | 0.00 | 40 | 1007.6 |
| 20260905220338 | 103 | 202 | 3.5 | 6.1 | 0.00 | 0.00 | 0.00 | 39 | 1007.7 |
| 20260905214842 | 104 | 229 | 2.6 | 7.0 | 0.00 | 0.00 | 0.00 | 39 | 1007.8 |
| 20260905213325 | 104 | 210 | 1.7 | 6.1 | 0.00 | 0.00 | 0.00 | 39 | 1007.7 |
| 20260905211830 | 105 | 340 | 1.7 | 7.0 | 0.00 | 0.00 | 0.00 | 38 | 1007.9 |
| 20260905210329 | 106 | 350 | 1.7 | 6.1 | 0.00 | 0.00 | 0.00 | 38 | 1008.0 |
| 20260905204829 | 106 | 327 | 1.7 | 6.1 | 0.00 | 0.00 | 0.00 | 37 | 1008.1 |
| 20260905203324 | 105 | 32 | 0.9 | 4.3 | 0.00 | 0.00 | 0.00 | 38 | 1008.3 |
| 20260905201825 | 103 | 72 | 1.7 | 6.1 | 0.00 | 0.00 | 0.00 | 41 | 1008.3 |
| 20260905200331 | 103 | 39 | 0.9 | 5.2 | 0.00 | 0.00 | 0.00 | 41 | 1008.8 |
| 20260905194830 | 102 | 327 | 0.9 | 6.1 | 0.00 | 0.00 | 0.00 | 42 | 1009.1 |
| 20260905193348 | 103 | 327 | 3.5 | 6.1 | 0.00 | 0.00 | 0.00 | 42 | 1009.2 |
| 20260905191827 | 104 | 229 | 1.7 | 3.5 | 0.00 | 0.00 | 0.00 | 42 | 1009.5 |
| 20260905190331 | 104 | 335 | 2.6 | 6.1 | 0.00 | 0.00 | 0.00 | 41 | 1009.6 |
| 20260905184828 | 103 | 234 | 0.9 | 5.2 | 0.00 | 0.00 | 0.00 | 42 | 1009.7 |
| 20260905183347 | 102 | 34 | 1.7 | 5.2 | 0.00 | 0.00 | 0.00 | 46 | 1010.1 |
| 20260905181830 | 101 | 27 | 0.9 | 4.3 | 0.00 | 0.00 | 0.00 | 47 | 1010.3 |
| 20260905180338 | 102 | 14 | 3.5 | 7.8 | 0.00 | 0.00 | 0.00 | 45 | 1010.5 |
| 20260905174840 | 102 | 132 | 2.6 | 4.3 | 0.00 | 0.00 | 0.00 | 45 | 1010.7 |
| 20260905173325 | 101 | 343 | 0.9 | 5.2 | 0.00 | 0.00 | 0.00 | 47 | 1010.7 |
| 20260905171849 | 101 | 329 | 0.9 | 5.2 | 0.00 | 0.00 | 0.00 | 49 | 1010.8 |
| 20260905170329 | 100 | 333 | 0.9 | 4.3 | 0.00 | 0.00 | 0.00 | 47 | 1011.0 |
| 20260905164826 | 99 | 19 | 0.9 | 4.3 | 0.00 | 0.00 | 0.00 | 51 | 1011.2 |
| 20260905163330 | 98 | 60 | 1.7 | 4.3 | 0.00 | 0.00 | 0.00 | 53 | 1011.4 |
| 20260905161827 | 96 | 140 | 1.7 | 4.3 | 0.00 | 0.00 | 0.00 | 56 | 1011.6 |
| 20260905160342 | 93 | 189 | 0.9 | 3.5 | 0.00 | 0.00 | 0.00 | 60 | 1011.8 |
| 20260905154830 | 91 | 212 | 1.7 | 3.5 | 0.00 | 0.00 | 0.00 | 64 | 1012.0 |
| 20260905153329 | 89 | 46 | 1.7 | 3.5 | 0.00 | 0.00 | 0.00 | 67 | 1012.0 |
| 20260905151835 | 86 | 207 | 1.7 | 2.6 | 0.00 | 0.00 | 0.00 | 73 | 1012.0 |
| 20260905150336 | 84 | 220 | 0.0 | 0.0 | 0.00 | 0.00 | 0.00 | 78 | 1012.0 |
| 20260905144824 | 82 | 193 | 0.0 | 0.0 | 0.00 | 0.00 | 0.00 | 78 | 1012.2 |
| 20260905143330 | 81 | 193 | 0.0 | 0.0 | 0.00 | 0.00 | 0.00 | 81 | 1012.1 |
| 20260905141827 | 80 | 193 | 0.0 | 0.0 | 0.00 | 0.00 | 0.00 | 84 | 1012.2 |
| 20260905140334 | 79 | 193 | 0.0 | 0.0 | 0.00 | 0.00 | 0.00 | 85 | 1012.2 |
| 20260905134823 | 78 | 148 | 0.0 | 0.0 | 0.00 | 0.00 | 0.00 | 87 | 1012.2 |
| 20260905133326 | 77 | 148 | 0.0 | 0.0 | 0.00 | 0.00 | 0.00 | 88 | 1012.3 |
| 20260905131831 | 77 | 148 | 0.0 | 0.0 | 0.00 | 0.00 | 0.00 | 90 | 1012.3 |
| 20260905130325 | 76 | 245 | 0.0 | 0.0 | 0.00 | 0.00 | 0.00 | 92 | 1012.4 |
| 20260905124843 | 75 | 85 | 0.0 | 0.0 | 0.00 | 0.00 | 0.00 | 94 | 1012.5 |
| 20260905123326 | 74 | 85 | 0.0 | 0.0 | 0.00 | 0.00 | 0.00 | 95 | 1012.4 |
| 20260905121851 | 73 | 85 | 0.0 | 0.9 | 0.00 | 0.00 | 0.00 | 94 | 1012.2 |
| 20260905120347 | 72 | 155 | 0.0 | 0.0 | 0.00 | 0.00 | 0.00 | 94 | 1012.1 |
| 20260905114830 | 72 | 155 | 0.0 | 0.0 | 0.00 | 0.00 | 0.00 | 93 | 1012.0 |
| 20260905113325 | 72 | 155 | 0.0 | 0.0 | 0.00 | 0.00 | 0.00 | 93 | 1011.7 |
| 20260905111853 | 72 | 155 | 0.0 | 0.0 | 0.00 | 0.00 | 0.00 | 93 | 1011.5 |
| 20260905110329 | 72 | 155 | 0.0 | 0.0 | 0.00 | 0.00 | 0.00 | 92 | 1011.3 |
| 20260905104853 | 72 | 155 | 0.0 | 0.0 | 0.00 | 0.00 | 0.00 | 92 | 1011.3 |
| 20260905103329 | 72 | 155 | 0.0 | 1.7 | 0.00 | 0.00 | 0.00 | 92 | 1011.1 |
| 20260905101835 | 72 | 192 | 0.0 | 0.0 | 0.00 | 0.00 | 0.00 | 92 | 1011.0 |
| 20260905100326 | 72 | 192 | 0.0 | 0.0 | 0.00 | 0.00 | 0.00 | 91 | 1010.8 |
| 20260905094832 | 72 | 192 | 0.0 | 0.0 | 0.00 | 0.00 | 0.00 | 91 | 1010.7 |
| 20260905093331 | 72 | 192 | 0.0 | 0.0 | 0.00 | 0.00 | 0.00 | 91 | 1010.6 |
| 20260905091857 | 73 | 192 | 0.0 | 1.7 | 0.00 | 0.00 | 0.00 | 91 | 1010.6 |
| 20260905090326 | 73 | 192 | 0.0 | 0.0 | 0.00 | 0.00 | 0.00 | 90 | 1010.6 |
| 20260905084831 | 73 | 192 | 0.0 | 0.0 | 0.00 | 0.00 | 0.00 | 90 | 1010.6 |
| 20260905083351 | 73 | 192 | 0.0 | 0.0 | 0.00 | 0.00 | 0.00 | 90 | 1010.7 |
| 20260905081846 | 74 | 192 | 0.0 | 1.7 | 0.00 | 0.00 | 0.00 | 90 | 1010.7 |
| 20260905080329 | 74 | 211 | 0.0 | 1.7 | 0.00 | 0.00 | 0.00 | 90 | 1010.9 |
| 20260905074839 | 74 | 252 | 0.0 | 0.0 | 0.00 | 0.00 | 0.00 | 89 | 1010.8 |
| 20260905073326 | 74 | 252 | 0.0 | 0.0 | 0.00 | 0.00 | 0.00 | 89 | 1010.8 |
| 20260905071850 | 75 | 252 | 0.0 | 0.0 | 0.00 | 0.00 | 0.00 | 89 | 1011.0 |
| 20260905070336 | 75 | 187 | 0.0 | 0.0 | 0.00 | 0.00 | 0.00 | 88 | 1011.0 |
| 20260905064827 | 75 | 100 | 0.0 | 0.0 | 0.00 | 0.00 | 0.00 | 87 | 1011.1 |
| 20260905063331 | 75 | 100 | 0.0 | 0.0 | 0.00 | 0.00 | 0.00 | 87 | 1011.1 |
| 20260905061836 | 76 | 158 | 0.0 | 0.9 | 0.00 | 0.00 | 0.00 | 87 | 1010.9 |
| 20260905060402 | 76 | 207 | 0.0 | 0.0 | 0.00 | 0.00 | 0.00 | 86 | 1011.1 |
| 20260905054848 | 76 | 207 | 0.0 | 0.0 | 0.00 | 0.00 | 0.00 | 86 | 1011.0 |
| 20260905053330 | 76 | 207 | 0.0 | 0.0 | 0.00 | 0.00 | 0.00 | 85 | 1010.9 |